sensor_id;sensor_type;location;lat;lon;timestamp;temperature;humidity
46309;DHT22;32037;50.820;6.494;2022-10-16T00:01:44;15.80;89.10
46309;DHT22;32037;50.820;6.494;2022-10-16T00:04:13;15.80;89.00
46309;DHT22;32037;50.820;6.494;2022-10-16T00:06:41;15.80;89.00
46309;DHT22;32037;50.820;6.494;2022-10-16T00:09:09;15.80;89.00
46309;DHT22;32037;50.820;6.494;2022-10-16T00:11:39;15.80;89.00
46309;DHT22;32037;50.820;6.494;2022-10-16T00:14:11;15.80;89.00
46309;DHT22;32037;50.820;6.494;2022-10-16T00:16:50;15.80;89.00
46309;DHT22;32037;50.820;6.494;2022-10-16T00:19:18;15.80;89.00
46309;DHT22;32037;50.820;6.494;2022-10-16T00:21:46;15.80;89.00
46309;DHT22;32037;50.820;6.494;2022-10-16T00:24:15;15.80;89.00
46309;DHT22;32037;50.820;6.494;2022-10-16T00:26:43;15.80;89.00
46309;DHT22;32037;50.820;6.494;2022-10-16T00:29:13;15.80;89.00
46309;DHT22;32037;50.820;6.494;2022-10-16T00:31:42;15.80;89.00
46309;DHT22;32037;50.820;6.494;2022-10-16T00:34:10;15.80;89.00
46309;DHT22;32037;50.820;6.494;2022-10-16T00:36:39;15.80;89.00
46309;DHT22;32037;50.820;6.494;2022-10-16T00:39:07;15.80;89.00
46309;DHT22;32037;50.820;6.494;2022-10-16T00:41:36;15.80;89.00
46309;DHT22;32037;50.820;6.494;2022-10-16T00:44:45;15.80;89.00
46309;DHT22;32037;50.820;6.494;2022-10-16T00:47:18;15.80;89.00
46309;DHT22;32037;50.820;6.494;2022-10-16T00:49:49;15.80;89.00
46309;DHT22;32037;50.820;6.494;2022-10-16T00:52:18;15.80;89.00
46309;DHT22;32037;50.820;6.494;2022-10-16T00:54:47;15.80;89.00
46309;DHT22;32037;50.820;6.494;2022-10-16T00:57:17;15.80;89.00
46309;DHT22;32037;50.820;6.494;2022-10-16T00:59:47;15.80;89.00
46309;DHT22;32037;50.820;6.494;2022-10-16T01:02:16;15.80;89.00
46309;DHT22;32037;50.820;6.494;2022-10-16T01:04:50;15.80;89.00
46309;DHT22;32037;50.820;6.494;2022-10-16T01:07:30;15.80;89.00
46309;DHT22;32037;50.820;6.494;2022-10-16T01:10:07;15.80;89.00
46309;DHT22;32037;50.820;6.494;2022-10-16T01:12:42;15.80;89.00
46309;DHT22;32037;50.820;6.494;2022-10-16T01:15:18;15.70;88.90
46309;DHT22;32037;50.820;6.494;2022-10-16T01:17:53;15.80;89.00
46309;DHT22;32037;50.820;6.494;2022-10-16T01:20:29;15.70;88.90
46309;DHT22;32037;50.820;6.494;2022-10-16T01:23:10;15.80;89.00
46309;DHT22;32037;50.820;6.494;2022-10-16T01:25:59;15.80;89.00
46309;DHT22;32037;50.820;6.494;2022-10-16T01:28:34;15.80;89.00
46309;DHT22;32037;50.820;6.494;2022-10-16T01:31:05;15.80;89.00
46309;DHT22;32037;50.820;6.494;2022-10-16T01:33:38;15.70;88.90
46309;DHT22;32037;50.820;6.494;2022-10-16T01:36:12;15.70;88.90
46309;DHT22;32037;50.820;6.494;2022-10-16T01:38:43;15.70;88.90
46309;DHT22;32037;50.820;6.494;2022-10-16T01:41:17;15.70;88.90
46309;DHT22;32037;50.820;6.494;2022-10-16T01:43:49;15.70;88.90
46309;DHT22;32037;50.820;6.494;2022-10-16T01:46:20;15.70;88.90
46309;DHT22;32037;50.820;6.494;2022-10-16T01:48:51;15.70;88.90
46309;DHT22;32037;50.820;6.494;2022-10-16T01:51:20;15.70;88.90
46309;DHT22;32037;50.820;6.494;2022-10-16T01:53:53;15.70;88.90
46309;DHT22;32037;50.820;6.494;2022-10-16T01:56:23;15.70;88.90
46309;DHT22;32037;50.820;6.494;2022-10-16T01:58:57;15.70;88.90
46309;DHT22;32037;50.820;6.494;2022-10-16T02:01:30;15.70;88.90
46309;DHT22;32037;50.820;6.494;2022-10-16T02:04:03;15.70;88.90
46309;DHT22;32037;50.820;6.494;2022-10-16T02:06:33;15.70;88.90
46309;DHT22;32037;50.820;6.494;2022-10-16T02:09:03;15.70;88.90
46309;DHT22;32037;50.820;6.494;2022-10-16T02:11:31;15.70;88.90
46309;DHT22;32037;50.820;6.494;2022-10-16T02:14:04;15.70;88.90
46309;DHT22;32037;50.820;6.494;2022-10-16T02:16:34;15.70;88.90
46309;DHT22;32037;50.820;6.494;2022-10-16T02:19:03;15.70;88.90
46309;DHT22;32037;50.820;6.494;2022-10-16T02:21:37;15.70;88.90
46309;DHT22;32037;50.820;6.494;2022-10-16T02:24:13;15.70;88.90
46309;DHT22;32037;50.820;6.494;2022-10-16T02:26:49;15.70;88.90
46309;DHT22;32037;50.820;6.494;2022-10-16T02:29:25;15.70;88.90
46309;DHT22;32037;50.820;6.494;2022-10-16T02:31:56;15.70;88.90
46309;DHT22;32037;50.820;6.494;2022-10-16T02:34:27;15.70;89.00
46309;DHT22;32037;50.820;6.494;2022-10-16T02:36:58;15.70;88.90
46309;DHT22;32037;50.820;6.494;2022-10-16T02:39:28;15.70;88.90
46309;DHT22;32037;50.820;6.494;2022-10-16T02:41:57;15.70;88.90
46309;DHT22;32037;50.820;6.494;2022-10-16T02:44:27;15.70;88.90
46309;DHT22;32037;50.820;6.494;2022-10-16T02:46:55;15.70;88.90
46309;DHT22;32037;50.820;6.494;2022-10-16T02:49:24;15.70;88.90
46309;DHT22;32037;50.820;6.494;2022-10-16T02:51:52;15.70;88.90
46309;DHT22;32037;50.820;6.494;2022-10-16T02:54:21;15.70;88.90
46309;DHT22;32037;50.820;6.494;2022-10-16T02:56:49;15.70;88.90
46309;DHT22;32037;50.820;6.494;2022-10-16T02:59:18;15.70;88.90
46309;DHT22;32037;50.820;6.494;2022-10-16T03:01:48;15.70;88.90
46309;DHT22;32037;50.820;6.494;2022-10-16T03:04:17;15.70;88.90
46309;DHT22;32037;50.820;6.494;2022-10-16T03:06:45;15.70;88.40
46309;DHT22;32037;50.820;6.494;2022-10-16T03:09:14;15.70;88.40
46309;DHT22;32037;50.820;6.494;2022-10-16T03:11:42;15.70;88.30
46309;DHT22;32037;50.820;6.494;2022-10-16T03:14:10;15.70;88.20
46309;DHT22;32037;50.820;6.494;2022-10-16T03:16:39;15.70;88.10
46309;DHT22;32037;50.820;6.494;2022-10-16T03:19:08;15.70;88.10
46309;DHT22;32037;50.820;6.494;2022-10-16T03:21:37;15.60;88.30
46309;DHT22;32037;50.820;6.494;2022-10-16T03:24:05;15.70;88.10
46309;DHT22;32037;50.820;6.494;2022-10-16T03:26:34;15.70;88.60
46309;DHT22;32037;50.820;6.494;2022-10-16T03:29:03;15.70;88.40
46309;DHT22;32037;50.820;6.494;2022-10-16T03:31:32;15.60;88.40
46309;DHT22;32037;50.820;6.494;2022-10-16T03:34:00;15.60;87.90
46309;DHT22;32037;50.820;6.494;2022-10-16T03:36:30;15.60;88.30
46309;DHT22;32037;50.820;6.494;2022-10-16T03:38:58;15.60;88.00
46309;DHT22;32037;50.820;6.494;2022-10-16T03:41:27;15.60;88.60
46309;DHT22;32037;50.820;6.494;2022-10-16T03:43:55;15.60;88.80
46309;DHT22;32037;50.820;6.494;2022-10-16T03:46:24;15.60;88.40
46309;DHT22;32037;50.820;6.494;2022-10-16T03:48:52;15.60;88.40
46309;DHT22;32037;50.820;6.494;2022-10-16T03:51:21;15.60;88.30
46309;DHT22;32037;50.820;6.494;2022-10-16T03:53:50;15.60;88.80
46309;DHT22;32037;50.820;6.494;2022-10-16T03:56:19;15.60;88.60
46309;DHT22;32037;50.820;6.494;2022-10-16T03:58:47;15.60;88.40
46309;DHT22;32037;50.820;6.494;2022-10-16T04:01:15;15.60;88.10
46309;DHT22;32037;50.820;6.494;2022-10-16T04:03:44;15.60;88.80
46309;DHT22;32037;50.820;6.494;2022-10-16T04:06:12;15.60;88.80
46309;DHT22;32037;50.820;6.494;2022-10-16T04:08:42;15.60;88.80
46309;DHT22;32037;50.820;6.494;2022-10-16T04:11:12;15.60;88.30
46309;DHT22;32037;50.820;6.494;2022-10-16T04:13:41;15.60;88.60
46309;DHT22;32037;50.820;6.494;2022-10-16T04:16:09;15.60;88.60
46309;DHT22;32037;50.820;6.494;2022-10-16T04:18:37;15.60;88.80
46309;DHT22;32037;50.820;6.494;2022-10-16T04:21:06;15.60;88.40
46309;DHT22;32037;50.820;6.494;2022-10-16T04:23:35;15.60;88.80
46309;DHT22;32037;50.820;6.494;2022-10-16T04:26:03;15.60;88.70
46309;DHT22;32037;50.820;6.494;2022-10-16T04:28:33;15.60;88.30
46309;DHT22;32037;50.820;6.494;2022-10-16T04:31:03;15.60;88.80
46309;DHT22;32037;50.820;6.494;2022-10-16T04:33:32;15.60;88.30
46309;DHT22;32037;50.820;6.494;2022-10-16T04:36:02;15.60;88.80
46309;DHT22;32037;50.820;6.494;2022-10-16T04:38:31;15.60;88.90
46309;DHT22;32037;50.820;6.494;2022-10-16T04:40:59;15.60;88.80
46309;DHT22;32037;50.820;6.494;2022-10-16T04:43:27;15.60;88.80
46309;DHT22;32037;50.820;6.494;2022-10-16T04:45:57;15.60;88.80
46309;DHT22;32037;50.820;6.494;2022-10-16T04:48:26;15.60;88.90
46309;DHT22;32037;50.820;6.494;2022-10-16T04:50:54;15.60;88.60
46309;DHT22;32037;50.820;6.494;2022-10-16T04:53:22;15.60;88.70
46309;DHT22;32037;50.820;6.494;2022-10-16T04:55:51;15.60;88.60
46309;DHT22;32037;50.820;6.494;2022-10-16T04:58:19;15.60;88.90
46309;DHT22;32037;50.820;6.494;2022-10-16T05:00:47;15.60;88.40
46309;DHT22;32037;50.820;6.494;2022-10-16T05:03:17;15.60;88.40
46309;DHT22;32037;50.820;6.494;2022-10-16T05:05:46;15.60;88.80
46309;DHT22;32037;50.820;6.494;2022-10-16T05:08:16;15.60;88.50
46309;DHT22;32037;50.820;6.494;2022-10-16T05:10:45;15.60;88.70
46309;DHT22;32037;50.820;6.494;2022-10-16T05:13:13;15.60;88.70
46309;DHT22;32037;50.820;6.494;2022-10-16T05:15:41;15.60;88.80
46309;DHT22;32037;50.820;6.494;2022-10-16T05:18:10;15.60;88.80
46309;DHT22;32037;50.820;6.494;2022-10-16T05:20:40;15.60;88.30
46309;DHT22;32037;50.820;6.494;2022-10-16T05:23:09;15.60;88.20
46309;DHT22;32037;50.820;6.494;2022-10-16T05:25:39;15.60;88.30
46309;DHT22;32037;50.820;6.494;2022-10-16T05:28:08;15.60;88.10
46309;DHT22;32037;50.820;6.494;2022-10-16T05:30:37;15.60;88.00
46309;DHT22;32037;50.820;6.494;2022-10-16T05:33:05;15.60;88.60
46309;DHT22;32037;50.820;6.494;2022-10-16T05:35:34;15.60;88.00
46309;DHT22;32037;50.820;6.494;2022-10-16T05:38:03;15.50;87.60
46309;DHT22;32037;50.820;6.494;2022-10-16T05:40:32;15.50;87.50
46309;DHT22;32037;50.820;6.494;2022-10-16T05:43:03;15.50;87.40
46309;DHT22;32037;50.820;6.494;2022-10-16T05:45:32;15.50;87.90
46309;DHT22;32037;50.820;6.494;2022-10-16T05:48:00;15.50;87.70
46309;DHT22;32037;50.820;6.494;2022-10-16T05:50:28;15.50;87.50
46309;DHT22;32037;50.820;6.494;2022-10-16T05:52:57;15.60;87.50
46309;DHT22;32037;50.820;6.494;2022-10-16T05:55:27;15.50;87.30
46309;DHT22;32037;50.820;6.494;2022-10-16T05:57:55;15.50;87.20
46309;DHT22;32037;50.820;6.494;2022-10-16T06:00:24;15.50;87.30
46309;DHT22;32037;50.820;6.494;2022-10-16T06:02:53;15.50;87.20
46309;DHT22;32037;50.820;6.494;2022-10-16T06:05:22;15.50;87.70
46309;DHT22;32037;50.820;6.494;2022-10-16T06:07:51;15.50;87.70
46309;DHT22;32037;50.820;6.494;2022-10-16T06:10:20;15.50;87.60
46309;DHT22;32037;50.820;6.494;2022-10-16T06:12:51;15.50;87.30
46309;DHT22;32037;50.820;6.494;2022-10-16T06:15:20;15.50;87.50
46309;DHT22;32037;50.820;6.494;2022-10-16T06:17:48;15.50;87.40
46309;DHT22;32037;50.820;6.494;2022-10-16T06:20:17;15.50;87.40
46309;DHT22;32037;50.820;6.494;2022-10-16T06:22:45;15.50;87.80
46309;DHT22;32037;50.820;6.494;2022-10-16T06:25:13;15.50;87.60
46309;DHT22;32037;50.820;6.494;2022-10-16T06:27:42;15.50;87.60
46309;DHT22;32037;50.820;6.494;2022-10-16T06:30:12;15.50;87.50
46309;DHT22;32037;50.820;6.494;2022-10-16T06:32:40;15.50;87.40
46309;DHT22;32037;50.820;6.494;2022-10-16T06:35:09;15.50;87.50
46309;DHT22;32037;50.820;6.494;2022-10-16T06:37:38;15.50;87.20
46309;DHT22;32037;50.820;6.494;2022-10-16T06:40:07;15.50;87.30
46309;DHT22;32037;50.820;6.494;2022-10-16T06:42:36;15.50;87.00
46309;DHT22;32037;50.820;6.494;2022-10-16T06:45:05;15.50;87.80
46309;DHT22;32037;50.820;6.494;2022-10-16T06:47:35;15.40;87.50
46309;DHT22;32037;50.820;6.494;2022-10-16T06:50:05;15.50;87.80
46309;DHT22;32037;50.820;6.494;2022-10-16T06:52:34;15.50;87.50
46309;DHT22;32037;50.820;6.494;2022-10-16T06:55:04;15.50;87.40
46309;DHT22;32037;50.820;6.494;2022-10-16T06:57:32;15.50;87.40
46309;DHT22;32037;50.820;6.494;2022-10-16T07:00:01;15.50;87.80
46309;DHT22;32037;50.820;6.494;2022-10-16T07:02:29;15.50;87.30
46309;DHT22;32037;50.820;6.494;2022-10-16T07:04:59;15.50;87.50
46309;DHT22;32037;50.820;6.494;2022-10-16T07:07:28;15.50;87.50
46309;DHT22;32037;50.820;6.494;2022-10-16T07:09:57;15.50;87.60
46309;DHT22;32037;50.820;6.494;2022-10-16T07:12:25;15.50;87.60
46309;DHT22;32037;50.820;6.494;2022-10-16T07:14:55;15.50;88.10
46309;DHT22;32037;50.820;6.494;2022-10-16T07:17:23;15.40;88.50
46309;DHT22;32037;50.820;6.494;2022-10-16T07:19:52;15.50;87.90
46309;DHT22;32037;50.820;6.494;2022-10-16T07:22:21;15.50;88.10
46309;DHT22;32037;50.820;6.494;2022-10-16T07:24:50;15.50;88.20
46309;DHT22;32037;50.820;6.494;2022-10-16T07:27:20;15.50;87.80
46309;DHT22;32037;50.820;6.494;2022-10-16T07:29:51;15.40;87.30
46309;DHT22;32037;50.820;6.494;2022-10-16T07:32:19;15.50;87.50
46309;DHT22;32037;50.820;6.494;2022-10-16T07:34:47;15.50;87.20
46309;DHT22;32037;50.820;6.494;2022-10-16T07:37:16;15.50;87.40
46309;DHT22;32037;50.820;6.494;2022-10-16T07:39:46;15.50;87.20
46309;DHT22;32037;50.820;6.494;2022-10-16T07:42:14;15.50;87.00
46309;DHT22;32037;50.820;6.494;2022-10-16T07:44:43;15.40;86.90
46309;DHT22;32037;50.820;6.494;2022-10-16T07:47:12;15.50;86.80
46309;DHT22;32037;50.820;6.494;2022-10-16T07:49:40;15.40;86.50
46309;DHT22;32037;50.820;6.494;2022-10-16T07:52:09;15.40;86.40
46309;DHT22;32037;50.820;6.494;2022-10-16T07:54:37;15.50;86.50
46309;DHT22;32037;50.820;6.494;2022-10-16T07:57:07;15.50;86.20
46309;DHT22;32037;50.820;6.494;2022-10-16T07:59:36;15.40;85.90
46309;DHT22;32037;50.820;6.494;2022-10-16T08:02:04;15.50;86.00
46309;DHT22;32037;50.820;6.494;2022-10-16T08:04:33;15.50;85.80
46309;DHT22;32037;50.820;6.494;2022-10-16T08:07:01;15.40;85.60
46309;DHT22;32037;50.820;6.494;2022-10-16T08:09:30;15.50;85.70
46309;DHT22;32037;50.820;6.494;2022-10-16T08:11:58;15.50;85.70
46309;DHT22;32037;50.820;6.494;2022-10-16T08:14:30;15.50;85.60
46309;DHT22;32037;50.820;6.494;2022-10-16T08:17:00;15.50;85.50
46309;DHT22;32037;50.820;6.494;2022-10-16T08:19:29;15.50;85.50
46309;DHT22;32037;50.820;6.494;2022-10-16T08:22:01;15.50;85.40
46309;DHT22;32037;50.820;6.494;2022-10-16T08:24:30;15.50;85.40
46309;DHT22;32037;50.820;6.494;2022-10-16T08:26:59;15.50;85.40
46309;DHT22;32037;50.820;6.494;2022-10-16T08:29:30;15.50;85.30
46309;DHT22;32037;50.820;6.494;2022-10-16T08:31:58;15.50;85.50
46309;DHT22;32037;50.820;6.494;2022-10-16T08:34:27;15.50;85.30
46309;DHT22;32037;50.820;6.494;2022-10-16T08:36:56;15.50;85.40
46309;DHT22;32037;50.820;6.494;2022-10-16T08:39:24;15.60;85.50
46309;DHT22;32037;50.820;6.494;2022-10-16T08:42:19;15.60;85.60
46309;DHT22;32037;50.820;6.494;2022-10-16T08:45:14;15.60;85.30
46309;DHT22;32037;50.820;6.494;2022-10-16T08:47:59;15.60;85.40
46309;DHT22;32037;50.820;6.494;2022-10-16T08:50:31;15.60;85.20
46309;DHT22;32037;50.820;6.494;2022-10-16T08:53:01;15.60;85.20
46309;DHT22;32037;50.820;6.494;2022-10-16T08:55:37;15.60;84.90
46309;DHT22;32037;50.820;6.494;2022-10-16T08:58:14;15.60;84.80
46309;DHT22;32037;50.820;6.494;2022-10-16T09:00:49;15.60;84.70
46309;DHT22;32037;50.820;6.494;2022-10-16T09:03:27;15.60;84.70
46309;DHT22;32037;50.820;6.494;2022-10-16T09:09:15;15.60;84.70
46309;DHT22;32037;50.820;6.494;2022-10-16T09:11:55;15.60;84.60
46309;DHT22;32037;50.820;6.494;2022-10-16T09:14:56;15.70;84.70
46309;DHT22;32037;50.820;6.494;2022-10-16T09:17:38;15.60;84.60
46309;DHT22;32037;50.820;6.494;2022-10-16T09:20:18;15.70;84.80
46309;DHT22;32037;50.820;6.494;2022-10-16T09:22:48;15.80;84.80
46309;DHT22;32037;50.820;6.494;2022-10-16T09:25:21;15.90;84.40
46309;DHT22;32037;50.820;6.494;2022-10-16T09:27:53;16.00;84.40
46309;DHT22;32037;50.820;6.494;2022-10-16T09:30:23;16.00;84.50
46309;DHT22;32037;50.820;6.494;2022-10-16T09:32:58;16.10;84.40
46309;DHT22;32037;50.820;6.494;2022-10-16T09:35:32;16.00;84.30
46309;DHT22;32037;50.820;6.494;2022-10-16T09:38:05;16.10;84.70
46309;DHT22;32037;50.820;6.494;2022-10-16T09:40:37;16.10;85.00
46309;DHT22;32037;50.820;6.494;2022-10-16T09:43:21;16.10;84.90
46309;DHT22;32037;50.820;6.494;2022-10-16T09:46:22;16.10;85.00
46309;DHT22;32037;50.820;6.494;2022-10-16T09:48:59;16.10;84.80
46309;DHT22;32037;50.820;6.494;2022-10-16T09:51:30;16.10;85.20
46309;DHT22;32037;50.820;6.494;2022-10-16T09:54:01;16.10;85.10
46309;DHT22;32037;50.820;6.494;2022-10-16T09:56:32;16.10;85.10
46309;DHT22;32037;50.820;6.494;2022-10-16T09:59:11;16.10;85.10
46309;DHT22;32037;50.820;6.494;2022-10-16T10:01:41;16.10;85.20
46309;DHT22;32037;50.820;6.494;2022-10-16T10:04:14;16.10;85.00
46309;DHT22;32037;50.820;6.494;2022-10-16T10:06:45;16.10;85.30
46309;DHT22;32037;50.820;6.494;2022-10-16T10:09:20;16.10;85.20
46309;DHT22;32037;50.820;6.494;2022-10-16T10:11:53;16.00;85.10
46309;DHT22;32037;50.820;6.494;2022-10-16T10:14:28;16.00;84.90
46309;DHT22;32037;50.820;6.494;2022-10-16T10:17:13;16.10;85.10
46309;DHT22;32037;50.820;6.494;2022-10-16T10:19:48;16.10;84.90
46309;DHT22;32037;50.820;6.494;2022-10-16T10:25:24;16.00;84.60
46309;DHT22;32037;50.820;6.494;2022-10-16T10:30:58;16.00;84.70
46309;DHT22;32037;50.820;6.494;2022-10-16T10:33:37;16.00;84.70
46309;DHT22;32037;50.820;6.494;2022-10-16T10:36:19;16.00;84.90
46309;DHT22;32037;50.820;6.494;2022-10-16T10:38:54;16.00;84.70
46309;DHT22;32037;50.820;6.494;2022-10-16T10:41:53;16.00;84.80
46309;DHT22;32037;50.820;6.494;2022-10-16T10:44:40;16.00;84.90
46309;DHT22;32037;50.820;6.494;2022-10-16T10:47:17;16.00;84.80
46309;DHT22;32037;50.820;6.494;2022-10-16T10:49:56;16.00;84.80
46309;DHT22;32037;50.820;6.494;2022-10-16T10:52:38;16.00;84.80
46309;DHT22;32037;50.820;6.494;2022-10-16T10:55:18;16.00;84.70
46309;DHT22;32037;50.820;6.494;2022-10-16T10:58:06;16.00;84.60
46309;DHT22;32037;50.820;6.494;2022-10-16T11:00:45;16.00;84.70
46309;DHT22;32037;50.820;6.494;2022-10-16T11:03:29;16.00;84.80
46309;DHT22;32037;50.820;6.494;2022-10-16T11:06:02;16.00;84.80
46309;DHT22;32037;50.820;6.494;2022-10-16T11:08:37;16.00;84.70
46309;DHT22;32037;50.820;6.494;2022-10-16T11:11:11;16.00;84.80
46309;DHT22;32037;50.820;6.494;2022-10-16T11:13:48;16.00;84.70
46309;DHT22;32037;50.820;6.494;2022-10-16T11:16:23;16.00;84.70
46309;DHT22;32037;50.820;6.494;2022-10-16T11:18:58;16.00;84.80
46309;DHT22;32037;50.820;6.494;2022-10-16T11:21:32;16.00;84.90
46309;DHT22;32037;50.820;6.494;2022-10-16T11:24:12;16.00;84.90
46309;DHT22;32037;50.820;6.494;2022-10-16T11:26:46;16.00;85.00
46309;DHT22;32037;50.820;6.494;2022-10-16T11:29:21;16.00;85.10
46309;DHT22;32037;50.820;6.494;2022-10-16T11:31:55;16.00;84.90
46309;DHT22;32037;50.820;6.494;2022-10-16T11:34:28;16.00;85.00
46309;DHT22;32037;50.820;6.494;2022-10-16T11:37:09;16.00;84.90
46309;DHT22;32037;50.820;6.494;2022-10-16T11:39:41;16.00;85.00
46309;DHT22;32037;50.820;6.494;2022-10-16T11:42:16;16.00;85.00
46309;DHT22;32037;50.820;6.494;2022-10-16T11:44:53;16.00;84.90
46309;DHT22;32037;50.820;6.494;2022-10-16T11:47:32;16.00;85.00
46309;DHT22;32037;50.820;6.494;2022-10-16T11:50:25;16.00;85.00
46309;DHT22;32037;50.820;6.494;2022-10-16T11:53:01;16.00;84.90
46309;DHT22;32037;50.820;6.494;2022-10-16T11:55:35;16.00;85.00
46309;DHT22;32037;50.820;6.494;2022-10-16T11:58:20;16.00;84.90
46309;DHT22;32037;50.820;6.494;2022-10-16T12:00:57;16.00;84.90
46309;DHT22;32037;50.820;6.494;2022-10-16T12:03:31;16.00;85.00
46309;DHT22;32037;50.820;6.494;2022-10-16T12:06:14;16.00;85.10
46309;DHT22;32037;50.820;6.494;2022-10-16T12:08:51;16.00;85.20
46309;DHT22;32037;50.820;6.494;2022-10-16T12:11:32;16.00;85.20
46309;DHT22;32037;50.820;6.494;2022-10-16T12:14:07;16.00;85.60
46309;DHT22;32037;50.820;6.494;2022-10-16T12:16:54;16.00;85.70
46309;DHT22;32037;50.820;6.494;2022-10-16T12:19:25;16.10;85.70
46309;DHT22;32037;50.820;6.494;2022-10-16T12:21:56;16.10;85.60
46309;DHT22;32037;50.820;6.494;2022-10-16T12:24:34;16.10;86.30
46309;DHT22;32037;50.820;6.494;2022-10-16T12:27:17;16.10;86.30
46309;DHT22;32037;50.820;6.494;2022-10-16T12:29:54;16.10;86.50
46309;DHT22;32037;50.820;6.494;2022-10-16T12:32:29;16.10;86.80
46309;DHT22;32037;50.820;6.494;2022-10-16T12:35:19;16.10;86.80
46309;DHT22;32037;50.820;6.494;2022-10-16T12:37:50;16.10;86.80
46309;DHT22;32037;50.820;6.494;2022-10-16T12:40:28;16.10;86.60
46309;DHT22;32037;50.820;6.494;2022-10-16T12:43:11;16.10;86.40
46309;DHT22;32037;50.820;6.494;2022-10-16T12:45:41;16.10;86.40
46309;DHT22;32037;50.820;6.494;2022-10-16T12:48:21;16.10;86.40
46309;DHT22;32037;50.820;6.494;2022-10-16T12:51:12;16.10;86.40
46309;DHT22;32037;50.820;6.494;2022-10-16T12:53:58;16.10;86.40
46309;DHT22;32037;50.820;6.494;2022-10-16T12:56:36;16.10;87.80
46309;DHT22;32037;50.820;6.494;2022-10-16T12:59:26;16.10;86.40
46309;DHT22;32037;50.820;6.494;2022-10-16T13:02:18;16.10;86.30
46309;DHT22;32037;50.820;6.494;2022-10-16T13:05:02;16.10;86.20
46309;DHT22;32037;50.820;6.494;2022-10-16T13:07:46;16.10;86.20
46309;DHT22;32037;50.820;6.494;2022-10-16T13:10:21;16.10;86.30
46309;DHT22;32037;50.820;6.494;2022-10-16T13:13:21;16.10;86.40
46309;DHT22;32037;50.820;6.494;2022-10-16T13:16:05;16.10;86.30
46309;DHT22;32037;50.820;6.494;2022-10-16T13:18:46;16.10;86.40
46309;DHT22;32037;50.820;6.494;2022-10-16T13:21:26;16.10;86.50
46309;DHT22;32037;50.820;6.494;2022-10-16T13:24:02;16.10;86.50
46309;DHT22;32037;50.820;6.494;2022-10-16T13:26:41;16.20;86.50
46309;DHT22;32037;50.820;6.494;2022-10-16T13:29:12;16.20;86.70
46309;DHT22;32037;50.820;6.494;2022-10-16T13:31:43;16.20;86.60
46309;DHT22;32037;50.820;6.494;2022-10-16T13:34:14;16.20;86.50
46309;DHT22;32037;50.820;6.494;2022-10-16T13:36:47;16.20;86.50
46309;DHT22;32037;50.820;6.494;2022-10-16T13:39:22;16.20;86.50
46309;DHT22;32037;50.820;6.494;2022-10-16T13:42:01;16.20;86.50
46309;DHT22;32037;50.820;6.494;2022-10-16T13:44:47;16.20;86.60
46309;DHT22;32037;50.820;6.494;2022-10-16T13:47:20;16.20;86.50
46309;DHT22;32037;50.820;6.494;2022-10-16T13:50:01;16.20;87.80
46309;DHT22;32037;50.820;6.494;2022-10-16T13:52:31;16.20;86.60
46309;DHT22;32037;50.820;6.494;2022-10-16T13:55:00;16.20;86.60
46309;DHT22;32037;50.820;6.494;2022-10-16T13:57:29;16.20;86.70
46309;DHT22;32037;50.820;6.494;2022-10-16T13:59:58;16.20;86.90
46309;DHT22;32037;50.820;6.494;2022-10-16T14:02:31;16.20;87.80
46309;DHT22;32037;50.820;6.494;2022-10-16T14:05:07;16.20;87.20
46309;DHT22;32037;50.820;6.494;2022-10-16T14:07:38;16.20;87.20
46309;DHT22;32037;50.820;6.494;2022-10-16T14:10:20;16.20;87.50
46309;DHT22;32037;50.820;6.494;2022-10-16T14:12:57;16.20;87.50
46309;DHT22;32037;50.820;6.494;2022-10-16T14:15:27;16.20;87.70
46309;DHT22;32037;50.820;6.494;2022-10-16T14:17:59;16.20;87.70
46309;DHT22;32037;50.820;6.494;2022-10-16T14:20:30;16.20;87.80
46309;DHT22;32037;50.820;6.494;2022-10-16T14:23:02;16.20;87.90
46309;DHT22;32037;50.820;6.494;2022-10-16T14:25:32;16.20;88.00
46309;DHT22;32037;50.820;6.494;2022-10-16T14:28:04;16.20;87.90
46309;DHT22;32037;50.820;6.494;2022-10-16T14:30:35;16.20;88.10
46309;DHT22;32037;50.820;6.494;2022-10-16T14:33:18;16.20;88.20
46309;DHT22;32037;50.820;6.494;2022-10-16T14:36:00;16.20;88.40
46309;DHT22;32037;50.820;6.494;2022-10-16T14:38:30;16.20;88.40
46309;DHT22;32037;50.820;6.494;2022-10-16T14:41:01;16.30;88.40
46309;DHT22;32037;50.820;6.494;2022-10-16T14:43:34;16.30;88.80
46309;DHT22;32037;50.820;6.494;2022-10-16T14:46:08;16.30;88.50
46309;DHT22;32037;50.820;6.494;2022-10-16T14:48:42;16.20;88.80
46309;DHT22;32037;50.820;6.494;2022-10-16T14:51:13;16.30;89.20
46309;DHT22;32037;50.820;6.494;2022-10-16T14:53:44;16.30;88.90
46309;DHT22;32037;50.820;6.494;2022-10-16T14:56:16;16.30;89.30
46309;DHT22;32037;50.820;6.494;2022-10-16T14:58:47;16.30;89.30
46309;DHT22;32037;50.820;6.494;2022-10-16T15:01:17;16.30;89.50
46309;DHT22;32037;50.820;6.494;2022-10-16T15:03:48;16.30;89.40
46309;DHT22;32037;50.820;6.494;2022-10-16T15:06:17;16.30;89.40
46309;DHT22;32037;50.820;6.494;2022-10-16T15:08:46;16.30;89.40
46309;DHT22;32037;50.820;6.494;2022-10-16T15:11:17;16.30;89.50
46309;DHT22;32037;50.820;6.494;2022-10-16T15:13:46;16.30;89.40
46309;DHT22;32037;50.820;6.494;2022-10-16T15:16:16;16.30;89.50
46309;DHT22;32037;50.820;6.494;2022-10-16T15:18:45;16.40;89.60
46309;DHT22;32037;50.820;6.494;2022-10-16T15:21:24;16.30;89.50
46309;DHT22;32037;50.820;6.494;2022-10-16T15:23:55;16.30;89.50
46309;DHT22;32037;50.820;6.494;2022-10-16T15:26:25;16.30;89.80
46309;DHT22;32037;50.820;6.494;2022-10-16T15:28:54;16.30;90.00
46309;DHT22;32037;50.820;6.494;2022-10-16T15:31:23;16.30;89.80
46309;DHT22;32037;50.820;6.494;2022-10-16T15:33:53;16.40;90.00
46309;DHT22;32037;50.820;6.494;2022-10-16T15:36:28;16.40;89.60
46309;DHT22;32037;50.820;6.494;2022-10-16T15:38:57;16.30;89.40
46309;DHT22;32037;50.820;6.494;2022-10-16T15:41:26;16.40;89.60
46309;DHT22;32037;50.820;6.494;2022-10-16T15:43:55;16.40;89.60
46309;DHT22;32037;50.820;6.494;2022-10-16T15:46:24;16.40;89.60
46309;DHT22;32037;50.820;6.494;2022-10-16T15:48:57;16.40;89.50
46309;DHT22;32037;50.820;6.494;2022-10-16T15:51:29;16.40;89.90
46309;DHT22;32037;50.820;6.494;2022-10-16T15:54:00;16.40;89.90
46309;DHT22;32037;50.820;6.494;2022-10-16T15:56:30;16.40;89.80
46309;DHT22;32037;50.820;6.494;2022-10-16T15:59:00;16.40;90.00
46309;DHT22;32037;50.820;6.494;2022-10-16T16:01:32;16.40;90.90
46309;DHT22;32037;50.820;6.494;2022-10-16T16:04:02;16.40;90.60
46309;DHT22;32037;50.820;6.494;2022-10-16T16:06:43;16.40;90.60
46309;DHT22;32037;50.820;6.494;2022-10-16T16:09:13;16.30;90.30
46309;DHT22;32037;50.820;6.494;2022-10-16T16:11:42;16.30;90.20
46309;DHT22;32037;50.820;6.494;2022-10-16T16:14:12;16.30;90.20